sensor_id;sensor_type;location;lat;lon;timestamp;P1;durP1;ratioP1;P2;durP2;ratioP2
13973;SDS011;7060;43.770;4.008;2023-04-01T00:01:16;6.23;;;1.03;;
13973;SDS011;7060;43.770;4.008;2023-04-01T00:03:45;6.47;;;1.30;;
13973;SDS011;7060;43.770;4.008;2023-04-01T00:06:14;6.80;;;1.13;;
13973;SDS011;7060;43.770;4.008;2023-04-01T00:08:44;7.67;;;1.43;;
13973;SDS011;7060;43.770;4.008;2023-04-01T00:11:13;10.13;;;1.33;;
13973;SDS011;7060;43.770;4.008;2023-04-01T00:13:43;6.10;;;1.37;;
13973;SDS011;7060;43.770;4.008;2023-04-01T00:16:12;5.17;;;1.07;;
13973;SDS011;7060;43.770;4.008;2023-04-01T00:18:47;7.53;;;1.60;;
13973;SDS011;7060;43.770;4.008;2023-04-01T00:21:17;6.57;;;1.23;;
13973;SDS011;7060;43.770;4.008;2023-04-01T00:23:45;8.37;;;1.43;;
13973;SDS011;7060;43.770;4.008;2023-04-01T00:26:14;5.23;;;1.27;;
13973;SDS011;7060;43.770;4.008;2023-04-01T00:28:47;6.23;;;1.20;;
13973;SDS011;7060;43.770;4.008;2023-04-01T00:31:15;8.77;;;1.60;;
13973;SDS011;7060;43.770;4.008;2023-04-01T00:33:44;7.70;;;1.30;;
13973;SDS011;7060;43.770;4.008;2023-04-01T00:36:13;7.80;;;1.43;;
13973;SDS011;7060;43.770;4.008;2023-04-01T00:38:44;6.47;;;1.60;;
13973;SDS011;7060;43.770;4.008;2023-04-01T00:41:13;6.83;;;1.27;;
13973;SDS011;7060;43.770;4.008;2023-04-01T00:43:44;10.27;;;1.50;;
13973;SDS011;7060;43.770;4.008;2023-04-01T00:46:15;10.03;;;1.57;;
13973;SDS011;7060;43.770;4.008;2023-04-01T00:48:46;8.73;;;1.47;;
13973;SDS011;7060;43.770;4.008;2023-04-01T00:51:17;7.30;;;1.43;;
13973;SDS011;7060;43.770;4.008;2023-04-01T00:53:49;8.40;;;1.43;;
13973;SDS011;7060;43.770;4.008;2023-04-01T00:56:21;3.63;;;1.07;;
13973;SDS011;7060;43.770;4.008;2023-04-01T00:58:56;5.77;;;1.00;;
13973;SDS011;7060;43.770;4.008;2023-04-01T01:01:28;6.77;;;1.60;;
13973;SDS011;7060;43.770;4.008;2023-04-01T01:03:58;9.27;;;1.20;;
13973;SDS011;7060;43.770;4.008;2023-04-01T01:06:33;9.23;;;1.40;;
13973;SDS011;7060;43.770;4.008;2023-04-01T01:09:22;6.63;;;1.20;;
13973;SDS011;7060;43.770;4.008;2023-04-01T01:12:00;6.70;;;1.30;;
13973;SDS011;7060;43.770;4.008;2023-04-01T01:14:39;6.43;;;1.10;;
13973;SDS011;7060;43.770;4.008;2023-04-01T01:17:21;8.33;;;1.33;;
13973;SDS011;7060;43.770;4.008;2023-04-01T01:23:08;7.63;;;1.17;;
13973;SDS011;7060;43.770;4.008;2023-04-01T01:26:07;7.03;;;1.20;;
13973;SDS011;7060;43.770;4.008;2023-04-01T01:28:52;8.50;;;1.30;;
13973;SDS011;7060;43.770;4.008;2023-04-01T01:31:36;7.57;;;1.57;;
13973;SDS011;7060;43.770;4.008;2023-04-01T01:34:11;6.93;;;1.63;;
13973;SDS011;7060;43.770;4.008;2023-04-01T01:36:50;7.93;;;1.30;;
13973;SDS011;7060;43.770;4.008;2023-04-01T01:39:24;6.47;;;1.57;;
13973;SDS011;7060;43.770;4.008;2023-04-01T01:41:56;9.43;;;2.13;;
13973;SDS011;7060;43.770;4.008;2023-04-01T01:44:29;10.27;;;1.63;;
13973;SDS011;7060;43.770;4.008;2023-04-01T01:47:01;9.57;;;1.53;;
13973;SDS011;7060;43.770;4.008;2023-04-01T01:49:30;11.80;;;2.50;;
13973;SDS011;7060;43.770;4.008;2023-04-01T01:52:02;7.53;;;1.40;;
13973;SDS011;7060;43.770;4.008;2023-04-01T01:54:31;9.00;;;2.03;;
13973;SDS011;7060;43.770;4.008;2023-04-01T01:57:01;9.33;;;1.70;;
13973;SDS011;7060;43.770;4.008;2023-04-01T01:59:36;10.60;;;1.70;;
13973;SDS011;7060;43.770;4.008;2023-04-01T02:02:09;11.87;;;1.90;;
13973;SDS011;7060;43.770;4.008;2023-04-01T02:04:42;8.93;;;1.67;;
13973;SDS011;7060;43.770;4.008;2023-04-01T02:07:16;12.37;;;1.90;;
13973;SDS011;7060;43.770;4.008;2023-04-01T02:09:48;13.00;;;2.00;;
13973;SDS011;7060;43.770;4.008;2023-04-01T02:12:17;11.17;;;1.97;;
13973;SDS011;7060;43.770;4.008;2023-04-01T02:14:50;10.47;;;1.70;;
13973;SDS011;7060;43.770;4.008;2023-04-01T02:17:22;11.50;;;2.20;;
13973;SDS011;7060;43.770;4.008;2023-04-01T02:19:56;8.80;;;1.50;;
13973;SDS011;7060;43.770;4.008;2023-04-01T02:22:28;9.97;;;1.60;;
13973;SDS011;7060;43.770;4.008;2023-04-01T02:25:00;14.53;;;2.40;;
13973;SDS011;7060;43.770;4.008;2023-04-01T02:27:32;9.57;;;1.83;;
13973;SDS011;7060;43.770;4.008;2023-04-01T02:30:02;10.40;;;1.73;;
13973;SDS011;7060;43.770;4.008;2023-04-01T02:32:31;8.23;;;1.80;;
13973;SDS011;7060;43.770;4.008;2023-04-01T02:35:02;10.30;;;1.93;;
13973;SDS011;7060;43.770;4.008;2023-04-01T02:37:34;13.77;;;2.13;;
13973;SDS011;7060;43.770;4.008;2023-04-01T02:40:06;12.37;;;2.60;;
13973;SDS011;7060;43.770;4.008;2023-04-01T02:42:36;8.87;;;1.87;;
13973;SDS011;7060;43.770;4.008;2023-04-01T02:45:05;10.10;;;1.90;;
13973;SDS011;7060;43.770;4.008;2023-04-01T02:47:35;9.60;;;1.87;;
13973;SDS011;7060;43.770;4.008;2023-04-01T02:50:04;12.00;;;2.50;;
13973;SDS011;7060;43.770;4.008;2023-04-01T02:52:35;15.20;;;2.23;;
13973;SDS011;7060;43.770;4.008;2023-04-01T02:55:03;10.17;;;1.93;;
13973;SDS011;7060;43.770;4.008;2023-04-01T02:57:34;11.30;;;2.10;;
13973;SDS011;7060;43.770;4.008;2023-04-01T03:00:03;10.37;;;2.10;;
13973;SDS011;7060;43.770;4.008;2023-04-01T03:02:38;14.87;;;2.37;;
13973;SDS011;7060;43.770;4.008;2023-04-01T03:05:07;11.73;;;1.90;;
13973;SDS011;7060;43.770;4.008;2023-04-01T03:07:37;20.43;;;2.17;;
13973;SDS011;7060;43.770;4.008;2023-04-01T03:10:06;10.93;;;2.03;;
13973;SDS011;7060;43.770;4.008;2023-04-01T03:12:35;12.17;;;2.40;;
13973;SDS011;7060;43.770;4.008;2023-04-01T03:15:04;8.20;;;1.67;;
13973;SDS011;7060;43.770;4.008;2023-04-01T03:17:38;19.53;;;2.37;;
13973;SDS011;7060;43.770;4.008;2023-04-01T03:20:07;11.40;;;2.10;;
13973;SDS011;7060;43.770;4.008;2023-04-01T03:22:38;9.93;;;1.80;;
13973;SDS011;7060;43.770;4.008;2023-04-01T03:25:08;10.67;;;2.33;;
13973;SDS011;7060;43.770;4.008;2023-04-01T03:27:38;10.83;;;2.30;;
13973;SDS011;7060;43.770;4.008;2023-04-01T03:30:08;11.77;;;2.40;;
13973;SDS011;7060;43.770;4.008;2023-04-01T03:32:46;9.57;;;1.63;;
13973;SDS011;7060;43.770;4.008;2023-04-01T03:35:14;11.77;;;2.10;;
13973;SDS011;7060;43.770;4.008;2023-04-01T03:37:46;10.27;;;1.90;;
13973;SDS011;7060;43.770;4.008;2023-04-01T03:40:14;16.23;;;2.53;;
13973;SDS011;7060;43.770;4.008;2023-04-01T03:42:43;11.30;;;2.00;;
13973;SDS011;7060;43.770;4.008;2023-04-01T03:45:11;9.83;;;2.13;;
13973;SDS011;7060;43.770;4.008;2023-04-01T03:47:40;12.70;;;2.20;;
13973;SDS011;7060;43.770;4.008;2023-04-01T03:50:09;12.07;;;2.03;;
13973;SDS011;7060;43.770;4.008;2023-04-01T03:52:38;9.87;;;1.97;;
13973;SDS011;7060;43.770;4.008;2023-04-01T03:55:08;7.33;;;1.50;;
13973;SDS011;7060;43.770;4.008;2023-04-01T03:57:38;16.30;;;2.07;;
13973;SDS011;7060;43.770;4.008;2023-04-01T04:00:15;9.60;;;1.53;;
13973;SDS011;7060;43.770;4.008;2023-04-01T04:02:47;10.97;;;2.13;;
13973;SDS011;7060;43.770;4.008;2023-04-01T04:05:20;9.27;;;1.90;;
13973;SDS011;7060;43.770;4.008;2023-04-01T04:07:48;13.37;;;2.00;;
13973;SDS011;7060;43.770;4.008;2023-04-01T04:10:20;8.30;;;1.57;;
13973;SDS011;7060;43.770;4.008;2023-04-01T04:12:49;8.43;;;1.43;;
13973;SDS011;7060;43.770;4.008;2023-04-01T04:15:20;16.00;;;1.63;;
13973;SDS011;7060;43.770;4.008;2023-04-01T04:17:50;9.60;;;2.07;;
13973;SDS011;7060;43.770;4.008;2023-04-01T04:20:18;12.87;;;2.27;;
13973;SDS011;7060;43.770;4.008;2023-04-01T04:22:47;11.33;;;1.77;;
13973;SDS011;7060;43.770;4.008;2023-04-01T04:25:15;10.17;;;2.10;;
13973;SDS011;7060;43.770;4.008;2023-04-01T04:27:46;14.17;;;2.40;;
13973;SDS011;7060;43.770;4.008;2023-04-01T04:30:14;11.93;;;2.13;;
13973;SDS011;7060;43.770;4.008;2023-04-01T04:32:43;10.57;;;1.27;;
13973;SDS011;7060;43.770;4.008;2023-04-01T04:35:12;11.80;;;1.60;;
13973;SDS011;7060;43.770;4.008;2023-04-01T04:37:40;10.20;;;1.80;;
13973;SDS011;7060;43.770;4.008;2023-04-01T04:40:09;5.40;;;1.30;;
13973;SDS011;7060;43.770;4.008;2023-04-01T04:42:38;11.07;;;1.67;;
13973;SDS011;7060;43.770;4.008;2023-04-01T04:45:12;8.20;;;1.70;;
13973;SDS011;7060;43.770;4.008;2023-04-01T04:47:49;8.50;;;1.53;;
13973;SDS011;7060;43.770;4.008;2023-04-01T04:50:19;15.77;;;2.57;;
13973;SDS011;7060;43.770;4.008;2023-04-01T04:52:48;8.73;;;2.17;;
13973;SDS011;7060;43.770;4.008;2023-04-01T04:55:17;12.43;;;2.20;;
13973;SDS011;7060;43.770;4.008;2023-04-01T04:57:50;10.93;;;2.23;;
13973;SDS011;7060;43.770;4.008;2023-04-01T05:00:20;6.27;;;1.87;;
13973;SDS011;7060;43.770;4.008;2023-04-01T05:02:56;10.13;;;1.63;;
13973;SDS011;7060;43.770;4.008;2023-04-01T05:05:24;10.20;;;1.40;;
13973;SDS011;7060;43.770;4.008;2023-04-01T05:07:53;9.60;;;2.17;;
13973;SDS011;7060;43.770;4.008;2023-04-01T05:10:21;7.50;;;1.47;;
13973;SDS011;7060;43.770;4.008;2023-04-01T05:12:50;10.77;;;1.90;;
13973;SDS011;7060;43.770;4.008;2023-04-01T05:15:22;8.83;;;1.83;;
13973;SDS011;7060;43.770;4.008;2023-04-01T05:17:51;9.87;;;1.60;;
13973;SDS011;7060;43.770;4.008;2023-04-01T05:20:20;7.87;;;1.37;;
13973;SDS011;7060;43.770;4.008;2023-04-01T05:22:48;10.67;;;1.33;;
13973;SDS011;7060;43.770;4.008;2023-04-01T05:25:18;8.77;;;1.83;;
13973;SDS011;7060;43.770;4.008;2023-04-01T05:27:46;10.33;;;1.67;;
13973;SDS011;7060;43.770;4.008;2023-04-01T05:30:15;8.10;;;1.33;;
13973;SDS011;7060;43.770;4.008;2023-04-01T05:33:05;8.40;;;1.13;;
13973;SDS011;7060;43.770;4.008;2023-04-01T05:35:33;6.47;;;1.20;;
13973;SDS011;7060;43.770;4.008;2023-04-01T05:38:02;4.93;;;1.33;;
13973;SDS011;7060;43.770;4.008;2023-04-01T05:40:33;7.07;;;1.30;;
13973;SDS011;7060;43.770;4.008;2023-04-01T05:43:01;7.37;;;1.33;;
13973;SDS011;7060;43.770;4.008;2023-04-01T05:45:30;6.80;;;0.87;;
13973;SDS011;7060;43.770;4.008;2023-04-01T05:48:12;3.87;;;0.90;;
13973;SDS011;7060;43.770;4.008;2023-04-01T05:50:42;7.37;;;1.23;;
13973;SDS011;7060;43.770;4.008;2023-04-01T05:53:11;5.30;;;0.70;;
13973;SDS011;7060;43.770;4.008;2023-04-01T05:55:42;4.53;;;1.03;;
13973;SDS011;7060;43.770;4.008;2023-04-01T05:58:10;5.03;;;0.80;;
13973;SDS011;7060;43.770;4.008;2023-04-01T06:00:42;7.20;;;0.70;;
13973;SDS011;7060;43.770;4.008;2023-04-01T06:03:16;6.83;;;0.80;;
13973;SDS011;7060;43.770;4.008;2023-04-01T06:05:45;6.17;;;0.87;;
13973;SDS011;7060;43.770;4.008;2023-04-01T06:08:13;6.40;;;1.03;;
13973;SDS011;7060;43.770;4.008;2023-04-01T06:10:55;4.07;;;1.17;;
13973;SDS011;7060;43.770;4.008;2023-04-01T06:13:37;4.77;;;0.90;;
13973;SDS011;7060;43.770;4.008;2023-04-01T06:16:15;4.67;;;0.97;;
13973;SDS011;7060;43.770;4.008;2023-04-01T06:19:00;5.93;;;1.27;;
13973;SDS011;7060;43.770;4.008;2023-04-01T06:21:44;4.97;;;1.30;;
13973;SDS011;7060;43.770;4.008;2023-04-01T06:24:45;9.70;;;1.50;;
13973;SDS011;7060;43.770;4.008;2023-04-01T06:27:30;10.97;;;1.30;;
13973;SDS011;7060;43.770;4.008;2023-04-01T06:30:16;6.90;;;1.20;;
13973;SDS011;7060;43.770;4.008;2023-04-01T06:33:02;6.10;;;0.90;;
13973;SDS011;7060;43.770;4.008;2023-04-01T06:41:55;4.50;;;1.03;;
13973;SDS011;7060;43.770;4.008;2023-04-01T06:44:43;3.30;;;0.90;;
13973;SDS011;7060;43.770;4.008;2023-04-01T06:47:44;2.53;;;0.77;;
13973;SDS011;7060;43.770;4.008;2023-04-01T06:50:44;4.03;;;0.80;;
13973;SDS011;7060;43.770;4.008;2023-04-01T06:54:00;3.47;;;0.77;;
13973;SDS011;7060;43.770;4.008;2023-04-01T06:56:54;3.90;;;0.80;;
13973;SDS011;7060;43.770;4.008;2023-04-01T06:59:31;5.73;;;0.80;;
13973;SDS011;7060;43.770;4.008;2023-04-01T07:02:04;5.27;;;0.90;;
13973;SDS011;7060;43.770;4.008;2023-04-01T07:04:44;7.20;;;0.80;;
13973;SDS011;7060;43.770;4.008;2023-04-01T07:07:19;5.77;;;1.20;;
13973;SDS011;7060;43.770;4.008;2023-04-01T07:09:59;5.40;;;0.83;;
13973;SDS011;7060;43.770;4.008;2023-04-01T07:12:36;3.73;;;0.87;;
13973;SDS011;7060;43.770;4.008;2023-04-01T07:15:30;3.07;;;0.57;;
13973;SDS011;7060;43.770;4.008;2023-04-01T07:18:09;6.90;;;1.27;;
13973;SDS011;7060;43.770;4.008;2023-04-01T07:20:43;6.23;;;1.10;;
13973;SDS011;7060;43.770;4.008;2023-04-01T07:23:15;14.20;;;1.87;;
13973;SDS011;7060;43.770;4.008;2023-04-01T07:26:11;8.67;;;1.50;;
13973;SDS011;7060;43.770;4.008;2023-04-01T07:29:08;8.83;;;1.40;;
13973;SDS011;7060;43.770;4.008;2023-04-01T07:31:56;8.00;;;1.43;;
13973;SDS011;7060;43.770;4.008;2023-04-01T07:34:51;9.93;;;1.80;;
13973;SDS011;7060;43.770;4.008;2023-04-01T07:37:28;3.97;;;1.50;;
13973;SDS011;7060;43.770;4.008;2023-04-01T07:40:05;7.70;;;1.60;;
13973;SDS011;7060;43.770;4.008;2023-04-01T07:42:45;5.67;;;1.10;;
13973;SDS011;7060;43.770;4.008;2023-04-01T07:45:29;7.07;;;1.20;;
13973;SDS011;7060;43.770;4.008;2023-04-01T07:48:06;10.87;;;1.20;;
13973;SDS011;7060;43.770;4.008;2023-04-01T07:50:48;3.57;;;0.90;;
13973;SDS011;7060;43.770;4.008;2023-04-01T07:53:25;7.27;;;1.13;;
13973;SDS011;7060;43.770;4.008;2023-04-01T07:56:05;4.70;;;1.07;;
13973;SDS011;7060;43.770;4.008;2023-04-01T07:58:44;7.70;;;1.57;;
13973;SDS011;7060;43.770;4.008;2023-04-01T08:01:45;8.13;;;1.50;;
13973;SDS011;7060;43.770;4.008;2023-04-01T08:04:33;8.57;;;1.30;;
13973;SDS011;7060;43.770;4.008;2023-04-01T08:07:15;5.53;;;1.20;;
13973;SDS011;7060;43.770;4.008;2023-04-01T08:10:06;7.97;;;1.47;;
13973;SDS011;7060;43.770;4.008;2023-04-01T08:13:02;6.80;;;1.40;;
13973;SDS011;7060;43.770;4.008;2023-04-01T08:16:05;6.13;;;1.30;;
13973;SDS011;7060;43.770;4.008;2023-04-01T08:18:49;5.50;;;1.27;;
13973;SDS011;7060;43.770;4.008;2023-04-01T08:21:28;8.47;;;1.73;;
13973;SDS011;7060;43.770;4.008;2023-04-01T08:24:05;8.13;;;1.93;;
13973;SDS011;7060;43.770;4.008;2023-04-01T08:26:40;7.97;;;1.50;;
13973;SDS011;7060;43.770;4.008;2023-04-01T08:29:15;9.70;;;1.53;;
13973;SDS011;7060;43.770;4.008;2023-04-01T08:31:48;5.30;;;1.00;;
13973;SDS011;7060;43.770;4.008;2023-04-01T08:34:23;7.20;;;1.60;;
13973;SDS011;7060;43.770;4.008;2023-04-01T08:36:57;7.87;;;1.37;;
13973;SDS011;7060;43.770;4.008;2023-04-01T08:39:31;5.50;;;1.40;;
13973;SDS011;7060;43.770;4.008;2023-04-01T08:42:10;9.27;;;2.13;;
13973;SDS011;7060;43.770;4.008;2023-04-01T08:45:10;6.17;;;1.30;;
13973;SDS011;7060;43.770;4.008;2023-04-01T08:48:16;7.40;;;1.40;;
13973;SDS011;7060;43.770;4.008;2023-04-01T08:51:05;10.63;;;1.60;;
13973;SDS011;7060;43.770;4.008;2023-04-01T08:54:02;5.70;;;1.00;;
13973;SDS011;7060;43.770;4.008;2023-04-01T08:56:42;5.63;;;1.10;;
13973;SDS011;7060;43.770;4.008;2023-04-01T08:59:25;8.10;;;1.40;;
13973;SDS011;7060;43.770;4.008;2023-04-01T09:08:30;6.50;;;1.30;;
13973;SDS011;7060;43.770;4.008;2023-04-01T09:11:12;4.97;;;1.33;;
13973;SDS011;7060;43.770;4.008;2023-04-01T09:14:16;13.00;;;1.33;;
13973;SDS011;7060;43.770;4.008;2023-04-01T09:23:10;7.57;;;0.83;;
13973;SDS011;7060;43.770;4.008;2023-04-01T09:26:00;4.23;;;0.77;;
13973;SDS011;7060;43.770;4.008;2023-04-01T09:28:42;8.97;;;1.00;;
13973;SDS011;7060;43.770;4.008;2023-04-01T09:31:26;5.83;;;1.30;;
13973;SDS011;7060;43.770;4.008;2023-04-01T09:34:40;5.03;;;1.10;;
13973;SDS011;7060;43.770;4.008;2023-04-01T09:37:30;5.83;;;0.97;;
13973;SDS011;7060;43.770;4.008;2023-04-01T09:40:18;6.77;;;1.07;;
13973;SDS011;7060;43.770;4.008;2023-04-01T09:51:58;6.77;;;0.93;;
13973;SDS011;7060;43.770;4.008;2023-04-01T09:54:47;5.50;;;0.70;;
13973;SDS011;7060;43.770;4.008;2023-04-01T09:57:39;5.93;;;0.93;;
13973;SDS011;7060;43.770;4.008;2023-04-01T10:01:03;6.07;;;1.40;;
13973;SDS011;7060;43.770;4.008;2023-04-01T10:10:10;4.20;;;1.10;;
13973;SDS011;7060;43.770;4.008;2023-04-01T10:25:55;6.50;;;1.17;;
13973;SDS011;7060;43.770;4.008;2023-04-01T10:35:14;5.80;;;1.03;;
13973;SDS011;7060;43.770;4.008;2023-04-01T10:38:03;5.80;;;0.70;;
13973;SDS011;7060;43.770;4.008;2023-04-01T10:44:40;4.07;;;0.90;;
13973;SDS011;7060;43.770;4.008;2023-04-01T10:50:40;3.87;;;0.90;;
13973;SDS011;7060;43.770;4.008;2023-04-01T10:53:34;3.73;;;1.00;;
13973;SDS011;7060;43.770;4.008;2023-04-01T10:56:34;3.73;;;0.70;;
13973;SDS011;7060;43.770;4.008;2023-04-01T11:03:18;4.00;;;0.97;;
13973;SDS011;7060;43.770;4.008;2023-04-01T11:06:50;4.50;;;0.90;;
13973;SDS011;7060;43.770;4.008;2023-04-01T11:09:57;2.77;;;0.90;;
13973;SDS011;7060;43.770;4.008;2023-04-01T11:19:13;4.80;;;0.90;;
13973;SDS011;7060;43.770;4.008;2023-04-01T11:22:07;8.00;;;1.50;;
13973;SDS011;7060;43.770;4.008;2023-04-01T11:25:02;4.07;;;1.13;;
13973;SDS011;7060;43.770;4.008;2023-04-01T11:28:35;4.53;;;1.10;;
13973;SDS011;7060;43.770;4.008;2023-04-01T11:34:16;3.50;;;0.90;;
13973;SDS011;7060;43.770;4.008;2023-04-01T11:36:55;3.70;;;1.07;;
13973;SDS011;7060;43.770;4.008;2023-04-01T11:39:33;4.83;;;1.33;;
13973;SDS011;7060;43.770;4.008;2023-04-01T11:42:39;3.77;;;0.70;;
13973;SDS011;7060;43.770;4.008;2023-04-01T11:45:48;4.07;;;0.90;;
13973;SDS011;7060;43.770;4.008;2023-04-01T11:48:47;2.73;;;0.70;;
13973;SDS011;7060;43.770;4.008;2023-04-01T11:54:34;3.40;;;0.80;;
13973;SDS011;7060;43.770;4.008;2023-04-01T11:57:19;6.27;;;0.90;;
13973;SDS011;7060;43.770;4.008;2023-04-01T12:03:05;3.27;;;0.83;;
13973;SDS011;7060;43.770;4.008;2023-04-01T12:05:50;4.87;;;1.10;;
13973;SDS011;7060;43.770;4.008;2023-04-01T12:08:31;5.13;;;1.00;;
13973;SDS011;7060;43.770;4.008;2023-04-01T12:11:08;5.47;;;0.83;;
13973;SDS011;7060;43.770;4.008;2023-04-01T12:13:47;5.67;;;1.30;;
13973;SDS011;7060;43.770;4.008;2023-04-01T12:16:36;4.27;;;0.93;;
13973;SDS011;7060;43.770;4.008;2023-04-01T12:19:13;4.77;;;1.30;;
13973;SDS011;7060;43.770;4.008;2023-04-01T12:21:50;5.63;;;1.17;;
13973;SDS011;7060;43.770;4.008;2023-04-01T12:24:36;6.33;;;0.90;;
13973;SDS011;7060;43.770;4.008;2023-04-01T12:27:38;6.23;;;1.67;;
13973;SDS011;7060;43.770;4.008;2023-04-01T12:30:21;5.20;;;0.90;;
13973;SDS011;7060;43.770;4.008;2023-04-01T12:33:04;4.40;;;0.87;;
13973;SDS011;7060;43.770;4.008;2023-04-01T12:35:51;4.43;;;0.90;;
13973;SDS011;7060;43.770;4.008;2023-04-01T12:38:31;4.40;;;1.03;;
13973;SDS011;7060;43.770;4.008;2023-04-01T12:41:12;5.20;;;0.97;;
13973;SDS011;7060;43.770;4.008;2023-04-01T12:50:14;2.23;;;0.97;;
13973;SDS011;7060;43.770;4.008;2023-04-01T12:52:58;5.93;;;0.93;;
13973;SDS011;7060;43.770;4.008;2023-04-01T12:55:39;3.93;;;0.80;;
13973;SDS011;7060;43.770;4.008;2023-04-01T13:01:27;6.07;;;1.03;;
13973;SDS011;7060;43.770;4.008;2023-04-01T13:04:05;4.17;;;0.97;;
13973;SDS011;7060;43.770;4.008;2023-04-01T13:06:52;4.37;;;0.80;;
13973;SDS011;7060;43.770;4.008;2023-04-01T13:09:37;5.03;;;1.40;;
13973;SDS011;7060;43.770;4.008;2023-04-01T13:12:22;4.63;;;1.43;;
13973;SDS011;7060;43.770;4.008;2023-04-01T13:15:22;4.60;;;1.00;;
13973;SDS011;7060;43.770;4.008;2023-04-01T13:17:58;5.13;;;1.13;;
13973;SDS011;7060;43.770;4.008;2023-04-01T13:20:36;3.80;;;0.93;;
13973;SDS011;7060;43.770;4.008;2023-04-01T13:23:14;6.00;;;0.83;;
13973;SDS011;7060;43.770;4.008;2023-04-01T13:25:54;3.50;;;0.83;;
13973;SDS011;7060;43.770;4.008;2023-04-01T13:28:41;3.50;;;0.97;;
13973;SDS011;7060;43.770;4.008;2023-04-01T13:31:20;2.67;;;0.80;;
13973;SDS011;7060;43.770;4.008;2023-04-01T13:34:00;2.97;;;0.70;;
13973;SDS011;7060;43.770;4.008;2023-04-01T13:36:44;3.43;;;0.70;;
13973;SDS011;7060;43.770;4.008;2023-04-01T13:39:26;2.83;;;0.83;;
13973;SDS011;7060;43.770;4.008;2023-04-01T13:42:11;3.50;;;0.40;;
13973;SDS011;7060;43.770;4.008;2023-04-01T13:44:45;2.33;;;0.40;;
13973;SDS011;7060;43.770;4.008;2023-04-01T13:47:36;2.23;;;0.50;;
13973;SDS011;7060;43.770;4.008;2023-04-01T13:53:25;1.63;;;0.40;;
13973;SDS011;7060;43.770;4.008;2023-04-01T13:56:33;2.43;;;0.80;;
13973;SDS011;7060;43.770;4.008;2023-04-01T13:59:17;2.70;;;0.60;;
13973;SDS011;7060;43.770;4.008;2023-04-01T14:02:21;2.50;;;0.50;;
13973;SDS011;7060;43.770;4.008;2023-04-01T14:05:15;3.80;;;0.80;;
13973;SDS011;7060;43.770;4.008;2023-04-01T14:08:09;3.20;;;0.60;;
13973;SDS011;7060;43.770;4.008;2023-04-01T14:10:46;2.10;;;0.53;;
13973;SDS011;7060;43.770;4.008;2023-04-01T14:13:28;1.63;;;0.40;;
13973;SDS011;7060;43.770;4.008;2023-04-01T14:16:10;2.23;;;0.73;;
13973;SDS011;7060;43.770;4.008;2023-04-01T14:21:55;2.93;;;0.90;;
13973;SDS011;7060;43.770;4.008;2023-04-01T14:24:52;9.00;;;1.07;;
13973;SDS011;7060;43.770;4.008;2023-04-01T14:28:03;4.33;;;0.80;;
13973;SDS011;7060;43.770;4.008;2023-04-01T14:30:50;3.23;;;0.90;;
13973;SDS011;7060;43.770;4.008;2023-04-01T14:33:35;4.07;;;1.03;;
13973;SDS011;7060;43.770;4.008;2023-04-01T14:36:25;3.83;;;0.83;;
13973;SDS011;7060;43.770;4.008;2023-04-01T14:39:15;2.97;;;0.80;;
13973;SDS011;7060;43.770;4.008;2023-04-01T14:42:01;1.90;;;0.60;;
13973;SDS011;7060;43.770;4.008;2023-04-01T14:44:54;2.73;;;0.60;;
13973;SDS011;7060;43.770;4.008;2023-04-01T14:47:40;2.43;;;0.60;;
13973;SDS011;7060;43.770;4.008;2023-04-01T14:50:14;2.17;;;0.40;;
13973;SDS011;7060;43.770;4.008;2023-04-01T14:52:49;1.67;;;0.40;;
13973;SDS011;7060;43.770;4.008;2023-04-01T14:55:29;1.17;;;0.27;;
13973;SDS011;7060;43.770;4.008;2023-04-01T14:58:07;2.77;;;0.37;;
13973;SDS011;7060;43.770;4.008;2023-04-01T15:00:48;2.20;;;0.50;;
13973;SDS011;7060;43.770;4.008;2023-04-01T15:03:26;2.13;;;0.70;;
13973;SDS011;7060;43.770;4.008;2023-04-01T15:06:07;2.23;;;0.40;;
13973;SDS011;7060;43.770;4.008;2023-04-01T15:09:00;0.87;;;0.30;;
13973;SDS011;7060;43.770;4.008;2023-04-01T15:11:43;1.77;;;0.50;;
13973;SDS011;7060;43.770;4.008;2023-04-01T15:14:26;1.87;;;0.40;;
13973;SDS011;7060;43.770;4.008;2023-04-01T15:17:15;1.80;;;0.70;;
13973;SDS011;7060;43.770;4.008;2023-04-01T15:20:03;1.20;;;0.33;;
13973;SDS011;7060;43.770;4.008;2023-04-01T15:22:54;2.27;;;0.50;;
13973;SDS011;7060;43.770;4.008;2023-04-01T15:28:36;3.23;;;0.70;;
13973;SDS011;7060;43.770;4.008;2023-04-01T15:31:10;3.33;;;0.60;;
13973;SDS011;7060;43.770;4.008;2023-04-01T15:34:07;3.37;;;0.70;;
13973;SDS011;7060;43.770;4.008;2023-04-01T15:36:49;1.97;;;0.50;;
13973;SDS011;7060;43.770;4.008;2023-04-01T15:39:23;2.67;;;0.40;;
13973;SDS011;7060;43.770;4.008;2023-04-01T15:42:04;1.27;;;0.40;;
13973;SDS011;7060;43.770;4.008;2023-04-01T15:44:52;2.00;;;0.60;;
13973;SDS011;7060;43.770;4.008;2023-04-01T15:47:31;3.73;;;0.67;;
13973;SDS011;7060;43.770;4.008;2023-04-01T15:50:19;4.83;;;0.83;;
13973;SDS011;7060;43.770;4.008;2023-04-01T15:53:01;5.13;;;0.90;;
13973;SDS011;7060;43.770;4.008;2023-04-01T15:55:39;3.57;;;0.70;;
13973;SDS011;7060;43.770;4.008;2023-04-01T16:01:15;2.43;;;0.77;;
13973;SDS011;7060;43.770;4.008;2023-04-01T16:03:55;3.13;;;0.50;;
13973;SDS011;7060;43.770;4.008;2023-04-01T16:06:43;2.70;;;0.90;;
13973;SDS011;7060;43.770;4.008;2023-04-01T16:09:30;3.50;;;0.87;;
13973;SDS011;7060;43.770;4.008;2023-04-01T16:12:10;2.70;;;0.60;;
13973;SDS011;7060;43.770;4.008;2023-04-01T16:14:52;4.07;;;0.60;;
13973;SDS011;7060;43.770;4.008;2023-04-01T16:17:36;6.17;;;0.60;;
13973;SDS011;7060;43.770;4.008;2023-04-01T16:20:19;4.57;;;0.50;;
13973;SDS011;7060;43.770;4.008;2023-04-01T16:22:53;2.53;;;0.50;;
13973;SDS011;7060;43.770;4.008;2023-04-01T16:25:31;1.10;;;0.30;;
13973;SDS011;7060;43.770;4.008;2023-04-01T16:28:11;3.57;;;0.70;;
13973;SDS011;7060;43.770;4.008;2023-04-01T16:30:50;1.23;;;0.20;;
13973;SDS011;7060;43.770;4.008;2023-04-01T16:33:28;0.73;;;0.30;;
13973;SDS011;7060;43.770;4.008;2023-04-01T16:36:07;3.20;;;1.60;;
13973;SDS011;7060;43.770;4.008;2023-04-01T16:38:41;1.70;;;0.40;;
13973;SDS011;7060;43.770;4.008;2023-04-01T16:41:17;1.17;;;0.30;;
13973;SDS011;7060;43.770;4.008;2023-04-01T16:43:48;2.63;;;0.63;;
13973;SDS011;7060;43.770;4.008;2023-04-01T16:46:33;1.53;;;0.47;;
13973;SDS011;7060;43.770;4.008;2023-04-01T16:49:05;2.10;;;0.30;;
13973;SDS011;7060;43.770;4.008;2023-04-01T16:51:52;1.53;;;0.30;;
13973;SDS011;7060;43.770;4.008;2023-04-01T16:54:29;4.07;;;0.50;;
13973;SDS011;7060;43.770;4.008;2023-04-01T16:57:04;0.57;;;0.13;;
13973;SDS011;7060;43.770;4.008;2023-04-01T16:59:46;1.73;;;0.30;;
13973;SDS011;7060;43.770;4.008;2023-04-01T17:02:26;0.73;;;0.30;;
13973;SDS011;7060;43.770;4.008;2023-04-01T17:05:03;3.20;;;0.80;;
13973;SDS011;7060;43.770;4.008;2023-04-01T17:07:46;0.70;;;0.40;;
13973;SDS011;7060;43.770;4.008;2023-04-01T17:10:22;1.87;;;0.30;;
13973;SDS011;7060;43.770;4.008;2023-04-01T17:16:14;0.90;;;0.30;;
13973;SDS011;7060;43.770;4.008;2023-04-01T17:19:01;2.53;;;0.50;;
13973;SDS011;7060;43.770;4.008;2023-04-01T17:21:49;1.10;;;0.30;;
13973;SDS011;7060;43.770;4.008;2023-04-01T17:24:32;1.20;;;0.30;;
13973;SDS011;7060;43.770;4.008;2023-04-01T17:27:15;1.07;;;0.27;;
13973;SDS011;7060;43.770;4.008;2023-04-01T17:29:57;0.30;;;0.20;;
13973;SDS011;7060;43.770;4.008;2023-04-01T17:32:39;0.63;;;0.20;;
13973;SDS011;7060;43.770;4.008;2023-04-01T17:35:24;1.43;;;0.40;;
13973;SDS011;7060;43.770;4.008;2023-04-01T17:38:02;1.50;;;0.67;;
13973;SDS011;7060;43.770;4.008;2023-04-01T17:40:44;1.70;;;0.80;;
13973;SDS011;7060;43.770;4.008;2023-04-01T17:43:26;2.80;;;1.80;;
13973;SDS011;7060;43.770;4.008;2023-04-01T17:46:09;1.30;;;0.80;;
13973;SDS011;7060;43.770;4.008;2023-04-01T17:48:53;0.80;;;0.17;;
13973;SDS011;7060;43.770;4.008;2023-04-01T17:51:32;1.37;;;0.30;;
13973;SDS011;7060;43.770;4.008;2023-04-01T17:54:11;1.37;;;0.40;;
13973;SDS011;7060;43.770;4.008;2023-04-01T17:56:53;2.07;;;0.70;;
13973;SDS011;7060;43.770;4.008;2023-04-01T17:59:34;2.83;;;0.80;;
13973;SDS011;7060;43.770;4.008;2023-04-01T18:02:11;1.30;;;0.60;;